createdAt,value
2023-02-11T00:01:33.698Z,7.70
2023-02-11T00:04:03.469Z,8.32
2023-02-11T00:06:34.335Z,6.88
2023-02-11T00:09:02.840Z,7.03
2023-02-11T00:11:32.111Z,7.90
2023-02-11T00:14:02.588Z,6.95
2023-02-11T00:16:33.276Z,6.63
2023-02-11T00:19:02.397Z,6.20
2023-02-11T00:21:31.459Z,6.35
2023-02-11T00:24:02.595Z,5.47
2023-02-11T00:26:33.849Z,6.65
2023-02-11T00:29:03.438Z,5.95
2023-02-11T00:31:35.164Z,6.18
2023-02-11T00:34:04.029Z,6.10
2023-02-11T00:36:32.501Z,6.15
2023-02-11T00:39:01.290Z,5.40
2023-02-11T00:41:31.431Z,5.30
2023-02-11T00:44:01.414Z,5.60
2023-02-11T00:46:30.271Z,5.57
2023-02-11T00:49:00.325Z,5.10
2023-02-11T00:51:30.089Z,5.83
2023-02-11T00:53:58.682Z,5.82
2023-02-11T00:56:26.701Z,6.05
2023-02-11T00:58:57.254Z,5.70
2023-02-11T01:01:30.098Z,5.63
2023-02-11T01:04:00.040Z,5.45
2023-02-11T01:06:28.772Z,4.97
2023-02-11T01:08:57.253Z,4.90
2023-02-11T01:11:25.860Z,5.30
2023-02-11T01:13:54.245Z,6.93
2023-02-11T01:16:24.421Z,5.78
2023-02-11T01:18:54.717Z,5.60
2023-02-11T01:21:24.686Z,5.47
2023-02-11T01:23:53.524Z,8.00
2023-02-11T01:26:22.190Z,9.55
2023-02-11T01:28:51.917Z,13.93
2023-02-11T01:31:20.326Z,23.05
2023-02-11T01:33:49.398Z,23.23
2023-02-11T01:36:19.155Z,22.42
2023-02-11T01:38:50.650Z,31.87
2023-02-11T01:41:22.561Z,23.80
2023-02-11T01:43:51.738Z,16.08
2023-02-11T01:46:33.545Z,12.52
2023-02-11T01:49:08.369Z,11.90
2023-02-11T01:51:43.134Z,16.98
2023-02-11T01:54:35.704Z,36.20
2023-02-11T01:57:25.411Z,29.48
2023-02-11T02:00:06.854Z,16.67
2023-02-11T02:02:56.854Z,21.97
2023-02-11T02:05:33.391Z,11.13
2023-02-11T02:08:24.935Z,7.40
2023-02-11T02:11:00.779Z,14.23
2023-02-11T02:13:32.106Z,26.30
2023-02-11T02:16:02.951Z,15.85
2023-02-11T02:18:50.334Z,9.05
2023-02-11T02:22:17.355Z,10.15
2023-02-11T02:25:10.897Z,8.93
2023-02-11T02:27:50.637Z,7.30
2023-02-11T02:31:06.751Z,6.93
2023-02-11T02:33:51.215Z,7.45
2023-02-11T02:36:27.824Z,5.60
2023-02-11T02:39:00.871Z,5.15
2023-02-11T02:41:33.416Z,5.17
2023-02-11T02:44:02.794Z,5.10
2023-02-11T02:46:34.862Z,4.70
2023-02-11T02:49:07.900Z,5.00
2023-02-11T02:52:36.827Z,4.82
2023-02-11T02:55:23.158Z,4.47
2023-02-11T02:58:24.945Z,3.95
2023-02-11T03:01:09.450Z,4.20
2023-02-11T03:03:51.023Z,4.05
2023-02-11T03:06:33.443Z,3.65
2023-02-11T03:09:11.402Z,3.72
2023-02-11T03:11:41.405Z,3.58
2023-02-11T03:14:15.003Z,3.53
2023-02-11T03:16:46.962Z,3.17
2023-02-11T03:19:23.765Z,3.05
2023-02-11T03:21:57.804Z,3.47
2023-02-11T03:24:32.203Z,3.30
2023-02-11T03:27:10.856Z,3.55
2023-02-11T03:29:51.670Z,3.00
2023-02-11T03:32:28.688Z,3.50
2023-02-11T03:35:02.330Z,3.65
2023-02-11T03:37:41.968Z,3.83
2023-02-11T03:40:16.562Z,4.07
2023-02-11T03:42:52.558Z,3.78
2023-02-11T03:45:25.435Z,3.88
2023-02-11T03:48:01.700Z,4.22
2023-02-11T03:50:34.854Z,3.97
2023-02-11T03:53:06.820Z,3.70
2023-02-11T03:55:39.979Z,3.38
2023-02-11T03:58:09.299Z,3.60
2023-02-11T04:00:41.556Z,4.07
2023-02-11T04:03:11.229Z,3.65
2023-02-11T04:05:40.326Z,3.92
2023-02-11T04:08:10.617Z,6.28
2023-02-11T04:10:39.035Z,5.25
2023-02-11T04:13:07.411Z,6.20
2023-02-11T04:15:35.606Z,5.97
2023-02-11T04:18:04.948Z,5.57
2023-02-11T04:20:33.511Z,5.63
2023-02-11T04:23:01.709Z,5.55
2023-02-11T04:25:31.578Z,5.50
2023-02-11T04:27:59.801Z,5.55
2023-02-11T04:30:28.850Z,5.40
2023-02-11T04:32:56.940Z,5.63
2023-02-11T04:35:26.032Z,5.35
2023-02-11T04:37:54.159Z,5.90
2023-02-11T04:40:23.090Z,5.22
2023-02-11T04:42:53.091Z,5.60
2023-02-11T04:45:21.719Z,5.65
2023-02-11T04:47:50.240Z,5.60
2023-02-11T04:50:18.762Z,5.70
2023-02-11T04:52:47.478Z,5.60
2023-02-11T04:55:15.627Z,5.80
2023-02-11T04:57:47.032Z,5.95
2023-02-11T05:00:18.263Z,5.43
2023-02-11T05:02:46.744Z,6.00
2023-02-11T05:05:16.033Z,5.72
2023-02-11T05:07:44.379Z,6.47
2023-02-11T05:10:13.112Z,5.25
2023-02-11T05:12:41.137Z,6.35
2023-02-11T05:15:10.660Z,5.43
2023-02-11T05:17:40.204Z,5.65
2023-02-11T05:20:09.878Z,6.70
2023-02-11T05:22:38.385Z,5.90
2023-02-11T05:25:07.478Z,5.07
2023-02-11T05:27:36.184Z,4.90
2023-02-11T05:30:08.481Z,4.80
2023-02-11T05:32:36.628Z,4.50
2023-02-11T05:35:07.790Z,4.40
2023-02-11T05:37:36.087Z,4.75
2023-02-11T05:40:05.279Z,4.97
2023-02-11T05:42:33.400Z,5.05
2023-02-11T05:45:02.632Z,5.15
2023-02-11T05:47:31.067Z,4.95
2023-02-11T05:49:59.581Z,4.75
2023-02-11T05:52:29.322Z,7.78
2023-02-11T05:54:57.841Z,6.65
2023-02-11T05:57:27.344Z,4.77
2023-02-11T05:59:57.114Z,4.97
2023-02-11T06:02:25.545Z,4.00
2023-02-11T06:04:53.685Z,4.57
2023-02-11T06:07:39.420Z,4.43
2023-02-11T06:10:14.545Z,5.10
2023-02-11T06:12:42.836Z,5.10
2023-02-11T06:15:14.315Z,5.00
2023-02-11T06:17:44.397Z,4.67
2023-02-11T06:20:13.612Z,5.68
2023-02-11T06:35:53.414Z,6.68
2023-02-11T07:07:26.399Z,5.78
2023-02-11T07:14:32.956Z,8.10
2023-02-11T07:17:01.136Z,6.35
2023-02-11T07:19:29.280Z,7.55
2023-02-11T07:21:58.394Z,8.25
2023-02-11T07:24:28.116Z,5.53
2023-02-11T07:26:57.176Z,5.15
2023-02-11T07:29:25.787Z,5.85
2023-02-11T07:31:53.940Z,4.85
2023-02-11T07:34:22.155Z,4.72
2023-02-11T07:36:51.545Z,5.72
2023-02-11T07:39:20.151Z,5.45
2023-02-11T07:41:49.620Z,6.60
2023-02-11T07:44:18.712Z,10.03
2023-02-11T07:46:49.867Z,11.10
2023-02-11T07:49:19.075Z,7.70
2023-02-11T07:51:49.230Z,7.47
2023-02-11T07:54:17.442Z,7.00
2023-02-11T07:56:45.958Z,12.20
2023-02-11T07:59:15.664Z,13.30
2023-02-11T08:01:44.238Z,7.30
2023-02-11T08:04:12.671Z,7.00
2023-02-11T08:06:44.237Z,4.15
2023-02-11T08:09:17.670Z,3.80
2023-02-11T08:11:46.854Z,3.22
2023-02-11T08:14:16.910Z,4.03
2023-02-11T08:16:45.411Z,3.95
2023-02-11T08:19:16.932Z,3.17
2023-02-11T08:21:46.009Z,4.70
2023-02-11T08:24:15.650Z,5.87
2023-02-11T08:26:44.075Z,3.40
2023-02-11T08:29:16.872Z,4.20
2023-02-11T08:31:48.320Z,4.00
2023-02-11T08:34:19.345Z,3.70
2023-02-11T08:36:49.733Z,3.67
2023-02-11T08:39:21.115Z,5.38
2023-02-11T08:41:51.632Z,3.00
2023-02-11T08:44:23.195Z,2.92
2023-02-11T08:46:52.683Z,3.95
2023-02-11T08:49:22.170Z,3.67
2023-02-11T08:51:54.538Z,8.68
2023-02-11T08:54:23.022Z,5.75
2023-02-11T08:56:52.989Z,3.47
2023-02-11T08:59:22.394Z,7.75
2023-02-11T09:01:51.429Z,9.63
2023-02-11T09:04:20.127Z,9.52
2023-02-11T09:06:48.339Z,9.70
2023-02-11T09:09:17.693Z,12.23
2023-02-11T09:11:46.983Z,13.32
2023-02-11T09:14:23.796Z,7.28
2023-02-11T09:16:53.254Z,11.07
2023-02-11T09:19:23.182Z,5.05
2023-02-11T09:21:51.585Z,6.32
2023-02-11T09:24:19.783Z,6.70
2023-02-11T09:26:47.913Z,7.50
2023-02-11T09:29:16.002Z,5.10
2023-02-11T09:31:45.602Z,5.97
2023-02-11T09:34:15.466Z,7.07
2023-02-11T09:36:43.774Z,9.88
2023-02-11T09:39:15.418Z,15.52
2023-02-11T09:42:30.702Z,7.45
2023-02-11T09:45:01.315Z,5.93
2023-02-11T09:47:35.738Z,5.90
2023-02-11T09:50:12.397Z,6.95
2023-02-11T09:52:49.782Z,6.63
2023-02-11T09:55:24.112Z,6.30
2023-02-11T09:57:52.763Z,6.10
2023-02-11T10:00:27.446Z,5.93
2023-02-11T10:03:33.917Z,6.20
2023-02-11T10:06:23.930Z,10.95
2023-02-11T10:09:08.702Z,6.80
2023-02-11T10:11:51.505Z,7.75
2023-02-11T10:14:48.026Z,8.45
2023-02-11T10:17:28.445Z,8.18
2023-02-11T10:20:19.739Z,7.80
2023-02-11T10:22:53.980Z,7.90
2023-02-11T10:25:27.230Z,7.47
2023-02-11T10:28:00.815Z,8.35
2023-02-11T10:30:36.821Z,9.43
2023-02-11T10:33:18.408Z,8.27
2023-02-11T10:35:48.641Z,8.95
2023-02-11T10:38:16.742Z,7.93
2023-02-11T10:40:44.847Z,8.10
2023-02-11T10:43:16.661Z,8.07
2023-02-11T10:45:49.590Z,8.25
2023-02-11T10:48:43.299Z,8.43
2023-02-11T10:51:22.053Z,8.55
2023-02-11T10:54:14.499Z,9.23
2023-02-11T10:56:47.443Z,8.82
2023-02-11T10:59:25.772Z,8.57
2023-02-11T11:01:59.127Z,7.82
2023-02-11T11:04:41.709Z,8.80
2023-02-11T11:07:24.496Z,11.02
2023-02-11T11:09:56.975Z,9.63
2023-02-11T11:12:32.727Z,9.98
2023-02-11T11:15:14.662Z,9.95
2023-02-11T11:17:43.216Z,10.13
2023-02-11T11:20:28.530Z,10.40
2023-02-11T11:23:18.256Z,11.02
2023-02-11T11:26:02.796Z,9.63
2023-02-11T11:28:38.844Z,10.00
2023-02-11T11:31:15.279Z,9.20
2023-02-11T11:33:45.586Z,9.70
2023-02-11T11:36:21.806Z,9.77
2023-02-11T11:38:58.247Z,8.95
2023-02-11T11:41:30.725Z,9.23
2023-02-11T11:44:04.193Z,9.77
2023-02-11T11:46:37.253Z,10.10
2023-02-11T11:49:24.377Z,10.43
2023-02-11T11:52:06.552Z,10.70
2023-02-11T11:54:38.794Z,10.15
2023-02-11T11:57:17.755Z,10.13
2023-02-11T11:59:46.948Z,12.43
2023-02-11T12:02:47.379Z,12.20
2023-02-11T12:05:27.021Z,11.05
2023-02-11T12:08:13.578Z,12.63
2023-02-11T12:11:03.837Z,11.70
2023-02-11T12:14:01.310Z,12.50
2023-02-11T12:16:41.078Z,11.10
2023-02-11T12:20:00.312Z,13.05
2023-02-11T12:22:48.932Z,11.70
2023-02-11T12:25:29.014Z,12.85
2023-02-11T12:28:30.643Z,11.77
2023-02-11T12:31:27.351Z,13.15
2023-02-11T12:34:22.370Z,13.03
2023-02-11T12:37:10.219Z,12.73
2023-02-11T12:39:48.754Z,13.40
2023-02-11T12:42:57.311Z,13.70
2023-02-11T12:46:09.372Z,12.67
2023-02-11T12:49:30.002Z,12.10
2023-02-11T12:52:31.861Z,13.30
2023-02-11T12:55:08.341Z,13.25
2023-02-11T12:57:41.501Z,12.95
2023-02-11T13:00:20.899Z,13.10
2023-02-11T13:03:01.100Z,13.23
2023-02-11T13:05:37.827Z,11.80
2023-02-11T13:08:15.090Z,11.98
2023-02-11T13:10:49.119Z,11.50
2023-02-11T13:13:24.149Z,11.80
2023-02-11T13:16:00.179Z,12.55
2023-02-11T13:18:49.898Z,12.15
2023-02-11T13:21:42.825Z,12.07
2023-02-11T13:24:27.087Z,12.20
2023-02-11T13:27:09.708Z,12.40
2023-02-11T13:30:14.774Z,12.30
2023-02-11T13:33:06.977Z,11.63
2023-02-11T13:35:39.892Z,11.48
2023-02-11T13:38:22.811Z,12.40
2023-02-11T13:41:06.055Z,11.90
2023-02-11T13:43:37.549Z,12.23
2023-02-11T13:46:10.085Z,12.70
2023-02-11T13:48:46.302Z,11.93
2023-02-11T13:51:19.626Z,11.60
2023-02-11T13:53:52.705Z,11.77
2023-02-11T13:56:34.194Z,11.05
2023-02-11T13:59:05.877Z,11.15
2023-02-11T14:01:43.917Z,13.27
2023-02-11T14:04:42.198Z,10.57
2023-02-11T14:07:48.724Z,12.20
2023-02-11T14:10:53.126Z,11.15
2023-02-11T14:13:27.400Z,11.02
2023-02-11T14:16:08.850Z,13.20
2023-02-11T14:19:01.838Z,14.23
2023-02-11T14:21:38.570Z,10.80
2023-02-11T14:24:58.571Z,10.23
2023-02-11T14:27:43.301Z,10.63
2023-02-11T14:30:47.736Z,10.33
2023-02-11T14:33:59.788Z,11.33
2023-02-11T14:37:08.453Z,19.27
2023-02-11T14:39:52.907Z,15.20
2023-02-11T14:42:26.986Z,11.60
2023-02-11T14:45:04.341Z,17.05
2023-02-11T14:47:42.731Z,12.37
2023-02-11T14:50:20.563Z,10.27
2023-02-11T14:52:51.156Z,10.85
2023-02-11T14:55:33.115Z,10.77
2023-02-11T14:58:16.603Z,9.88
2023-02-11T15:00:56.873Z,10.35
2023-02-11T15:03:35.000Z,10.70
2023-02-11T15:06:08.623Z,11.82
2023-02-11T15:08:43.620Z,12.35
2023-02-11T15:11:16.681Z,11.68
2023-02-11T15:13:50.073Z,11.20
2023-02-11T15:16:24.379Z,11.65
2023-02-11T15:18:57.045Z,11.73
2023-02-11T15:21:29.870Z,21.90
2023-02-11T15:24:06.280Z,13.20
2023-02-11T15:26:34.750Z,33.22
2023-02-11T15:29:04.997Z,21.98
2023-02-11T15:31:35.069Z,17.35
2023-02-11T15:34:09.845Z,14.77
2023-02-11T15:36:39.718Z,13.73
2023-02-11T15:39:20.006Z,13.48
2023-02-11T15:41:48.488Z,14.05
2023-02-11T15:44:35.944Z,13.57
2023-02-11T15:47:11.159Z,14.70
2023-02-11T15:49:45.686Z,14.23
2023-02-11T15:52:22.846Z,13.32
2023-02-11T15:54:53.276Z,12.75
2023-02-11T15:57:23.418Z,12.88
2023-02-11T15:59:56.359Z,12.65
2023-02-11T16:02:32.584Z,12.30
2023-02-11T16:05:05.421Z,11.65
2023-02-11T16:07:47.356Z,12.32
2023-02-11T16:10:27.449Z,13.95
2023-02-11T16:13:04.562Z,16.85
2023-02-11T16:15:47.151Z,22.40
2023-02-11T16:18:38.685Z,19.10
2023-02-11T16:21:16.134Z,15.45
2023-02-11T16:23:52.907Z,19.65
2023-02-11T16:26:31.069Z,13.77
2023-02-11T16:29:11.028Z,14.02
2023-02-11T16:31:43.748Z,16.67
2023-02-11T16:34:17.780Z,16.90
2023-02-11T16:36:46.806Z,21.02
2023-02-11T16:39:16.815Z,17.75
2023-02-11T16:41:45.645Z,19.52
2023-02-11T16:44:13.784Z,17.83
2023-02-11T16:46:43.988Z,16.30
2023-02-11T16:49:19.429Z,16.50
2023-02-11T16:51:51.531Z,16.17
2023-02-11T16:54:21.149Z,16.05
2023-02-11T16:56:49.659Z,15.85
2023-02-11T16:59:17.793Z,17.23
2023-02-11T17:01:49.694Z,16.25
2023-02-11T17:04:24.659Z,15.65
2023-02-11T17:06:53.442Z,15.88
2023-02-11T17:09:27.120Z,16.38
2023-02-11T17:11:56.733Z,17.98
2023-02-11T17:14:24.867Z,20.98
2023-02-11T17:16:54.500Z,23.92
2023-02-11T17:19:22.693Z,24.05
2023-02-11T17:21:53.967Z,26.55
2023-02-11T17:24:23.752Z,27.45
2023-02-11T17:26:52.374Z,25.67
2023-02-11T17:29:23.954Z,27.23
2023-02-11T17:31:54.535Z,29.95
2023-02-11T17:34:24.076Z,32.05
2023-02-11T17:36:53.057Z,33.50
2023-02-11T17:39:21.266Z,30.70
2023-02-11T17:41:49.460Z,30.13
2023-02-11T17:44:17.800Z,32.60
2023-02-11T17:46:46.336Z,34.55
2023-02-11T17:49:16.420Z,31.80
2023-02-11T17:51:45.315Z,27.20
2023-02-11T17:54:17.275Z,30.20
2023-02-11T17:56:48.409Z,35.03
2023-02-11T17:59:18.207Z,31.92
2023-02-11T18:01:46.991Z,34.72
2023-02-11T18:04:19.291Z,36.47
2023-02-11T18:06:48.237Z,32.30
2023-02-11T18:09:16.331Z,29.38
2023-02-11T18:11:44.909Z,27.98
2023-02-11T18:14:13.417Z,34.75
2023-02-11T18:16:44.031Z,42.60
2023-02-11T18:19:13.562Z,41.65
2023-02-11T18:21:43.319Z,39.70
2023-02-11T18:24:12.855Z,30.75
2023-02-11T18:26:42.151Z,33.07
2023-02-11T18:29:10.859Z,33.72
2023-02-11T18:31:39.495Z,34.78
2023-02-11T18:34:10.971Z,34.17
2023-02-11T18:36:40.100Z,30.95
2023-02-11T18:39:10.041Z,26.33
2023-02-11T18:41:40.068Z,24.83
2023-02-11T18:44:09.462Z,26.80
2023-02-11T18:46:37.608Z,26.48
2023-02-11T18:49:06.011Z,27.50
2023-02-11T18:51:34.171Z,29.63
2023-02-11T18:54:02.246Z,53.50
2023-02-11T18:56:31.682Z,54.13
2023-02-11T18:59:01.666Z,65.63
2023-02-11T19:01:33.700Z,56.72
2023-02-11T19:04:05.218Z,55.78
2023-02-11T19:06:38.686Z,37.47
2023-02-11T19:09:11.200Z,33.92
2023-02-11T19:11:50.589Z,29.40
2023-02-11T19:14:22.855Z,26.38
2023-02-11T19:16:54.493Z,27.08
2023-02-11T19:19:24.993Z,31.77
2023-02-11T19:21:53.494Z,32.28
2023-02-11T19:24:22.921Z,31.33
2023-02-11T19:26:57.180Z,30.43
2023-02-11T19:29:25.508Z,23.30
2023-02-11T19:31:54.118Z,23.30
2023-02-11T19:34:23.318Z,28.92
2023-02-11T19:36:53.012Z,23.85
2023-02-11T19:39:23.875Z,23.20
2023-02-11T19:41:54.903Z,22.83
2023-02-11T19:44:23.408Z,25.23
2023-02-11T19:46:53.323Z,22.10
2023-02-11T19:49:26.085Z,18.75
2023-02-11T19:51:58.994Z,18.80
2023-02-11T19:54:29.748Z,25.63
2023-02-11T19:56:59.750Z,24.33
2023-02-11T19:59:28.605Z,20.67
2023-02-11T20:01:57.661Z,19.55
2023-02-11T20:04:26.140Z,20.58
2023-02-11T20:06:54.534Z,23.38
2023-02-11T20:09:22.816Z,20.38
2023-02-11T20:11:51.013Z,18.05
2023-02-11T20:14:20.520Z,17.30
2023-02-11T20:16:50.375Z,19.02
2023-02-11T20:19:21.459Z,16.90
2023-02-11T20:21:56.188Z,29.45
2023-02-11T20:24:26.085Z,25.03
2023-02-11T20:26:56.889Z,24.27
2023-02-11T20:29:27.348Z,19.97
2023-02-11T20:31:56.189Z,24.25
2023-02-11T20:34:25.307Z,20.38
2023-02-11T20:36:54.627Z,16.10
2023-02-11T20:39:25.732Z,15.57
2023-02-11T20:41:56.541Z,15.20
2023-02-11T20:44:26.275Z,13.13
2023-02-11T20:46:55.550Z,14.65
2023-02-11T20:49:25.533Z,14.53
2023-02-11T20:51:54.473Z,14.35
2023-02-11T20:54:24.339Z,14.07
2023-02-11T20:56:56.636Z,14.30
2023-02-11T20:59:27.679Z,15.55
2023-02-11T21:01:58.008Z,16.80
2023-02-11T21:04:30.631Z,17.40
2023-02-11T21:07:01.377Z,17.52
2023-02-11T21:09:33.149Z,16.27
2023-02-11T21:12:02.725Z,19.23
2023-02-11T21:14:33.982Z,15.77
2023-02-11T21:17:02.372Z,18.50
2023-02-11T21:19:30.466Z,19.67
2023-02-11T21:22:00.821Z,23.20
2023-02-11T21:24:30.743Z,18.85
2023-02-11T21:26:59.032Z,18.80
2023-02-11T21:29:27.390Z,19.88
2023-02-11T21:31:57.009Z,19.77
2023-02-11T21:34:25.193Z,18.08
2023-02-11T21:36:53.435Z,27.63
2023-02-11T21:39:21.885Z,29.88
2023-02-11T21:41:50.159Z,28.35
2023-02-11T21:44:18.731Z,19.30
2023-02-11T21:46:46.900Z,17.75
2023-02-11T21:49:16.453Z,14.00
2023-02-11T21:51:45.134Z,17.67
2023-02-11T21:54:13.834Z,14.03
2023-02-11T21:56:41.990Z,13.25
2023-02-11T21:59:14.814Z,23.20
2023-02-11T22:01:43.659Z,32.17
2023-02-11T22:04:11.954Z,23.65
2023-02-11T22:06:41.767Z,21.05
2023-02-11T22:09:11.843Z,18.88
2023-02-11T22:11:40.852Z,17.75
2023-02-11T22:14:09.160Z,17.70
2023-02-11T22:16:37.347Z,17.17
2023-02-11T22:19:07.513Z,19.05
2023-02-11T22:21:35.762Z,20.98
2023-02-11T22:24:06.104Z,19.98
2023-02-11T22:26:34.443Z,18.43
2023-02-11T22:29:03.981Z,22.50
2023-02-11T22:31:35.356Z,26.00
2023-02-11T22:34:05.528Z,19.17
2023-02-11T22:36:36.405Z,15.73
2023-02-11T22:39:09.962Z,26.00
2023-02-11T22:41:39.231Z,23.47
2023-02-11T22:44:08.268Z,23.48
2023-02-11T22:46:37.533Z,19.40
2023-02-11T22:49:07.301Z,23.52
2023-02-11T22:51:35.741Z,16.55
2023-02-11T22:54:08.534Z,18.52
2023-02-11T22:56:36.992Z,15.60
2023-02-11T22:59:08.348Z,16.67
2023-02-11T23:01:37.144Z,15.93
2023-02-11T23:04:08.936Z,13.70
2023-02-11T23:06:37.156Z,12.25
2023-02-11T23:09:08.078Z,13.90
2023-02-11T23:11:36.412Z,42.45
2023-02-11T23:14:05.550Z,28.88
2023-02-11T23:16:35.728Z,20.27
2023-02-11T23:19:07.936Z,18.42
2023-02-11T23:26:23.637Z,16.13
2023-02-11T23:28:51.887Z,14.18
2023-02-11T23:31:23.796Z,13.18
2023-02-11T23:33:53.428Z,11.25
2023-02-11T23:36:24.884Z,11.23
2023-02-11T23:38:53.501Z,11.73
2023-02-11T23:41:25.570Z,11.38
2023-02-11T23:43:56.253Z,13.10
2023-02-11T23:46:26.819Z,10.67
2023-02-11T23:48:55.949Z,9.43
2023-02-11T23:51:25.172Z,9.57
2023-02-11T23:53:56.075Z,8.75
2023-02-11T23:56:29.267Z,9.30
2023-02-11T23:58:59.618Z,8.88
